createdAt,value
2016-07-19T00:00:18.170Z,0
2016-07-19T00:01:18.160Z,0
2016-07-19T00:02:18.163Z,0
2016-07-19T00:03:19.586Z,0
2016-07-19T00:04:18.891Z,0
2016-07-19T00:05:16.770Z,0
2016-07-19T00:06:16.770Z,0
2016-07-19T00:07:18.545Z,0
2016-07-19T00:08:18.544Z,0
2016-07-19T00:09:20.467Z,0
2016-07-19T00:10:17.551Z,0
2016-07-19T00:11:18.259Z,0
2016-07-19T00:12:19.651Z,0
2016-07-19T00:13:18.223Z,0
2016-07-19T00:14:18.944Z,0
2016-07-19T00:15:18.232Z,0
2016-07-19T00:16:18.943Z,0
2016-07-19T00:17:18.961Z,0
2016-07-19T00:18:19.505Z,0
2016-07-19T00:19:17.553Z,0
2016-07-19T00:20:20.173Z,0
2016-07-19T00:21:18.973Z,0
2016-07-19T00:22:18.981Z,0
2016-07-19T00:23:18.289Z,0
2016-07-19T00:24:18.995Z,0
2016-07-19T00:25:18.288Z,0
2016-07-19T00:26:18.310Z,0
2016-07-19T00:27:19.005Z,0
2016-07-19T00:28:19.008Z,0
2016-07-19T00:29:18.148Z,0
2016-07-19T00:30:18.313Z,0
2016-07-19T00:31:21.527Z,0
2016-07-19T00:32:17.631Z,0
2016-07-19T00:33:20.843Z,0
2016-07-19T00:34:17.631Z,0
2016-07-19T00:35:18.341Z,0
2016-07-19T00:36:17.642Z,0
2016-07-19T00:37:19.056Z,0
2016-07-19T00:38:19.781Z,0
2016-07-19T00:39:19.079Z,0
2016-07-19T00:40:17.668Z,0
2016-07-19T00:41:18.372Z,0
2016-07-19T00:42:18.739Z,0
2016-07-19T00:43:19.095Z,0
2016-07-19T00:44:17.829Z,0
2016-07-19T00:45:18.398Z,0
2016-07-19T00:46:17.691Z,0
2016-07-19T00:47:19.821Z,0
2016-07-19T00:48:19.123Z,0
2016-07-19T00:49:18.428Z,0
2016-07-19T00:50:18.422Z,0
2016-07-19T00:51:17.716Z,0
2016-07-19T00:52:18.434Z,0
2016-07-19T00:53:19.035Z,0
2016-07-19T00:54:19.149Z,0
2016-07-19T00:55:20.330Z,0
2016-07-19T00:56:19.168Z,0
2016-07-19T00:57:19.169Z,0
2016-07-19T00:58:17.756Z,0
2016-07-19T00:59:18.464Z,0
2016-07-19T01:00:18.481Z,0
2016-07-19T01:01:18.478Z,0
2016-07-19T01:02:19.072Z,0
2016-07-19T01:03:17.778Z,0
2016-07-19T01:04:18.383Z,0
2016-07-19T01:05:19.202Z,0
2016-07-19T01:06:20.300Z,0
2016-07-19T01:07:19.215Z,0
2016-07-19T01:08:17.962Z,0
2016-07-19T01:09:17.860Z,0
2016-07-19T01:10:19.233Z,0
2016-07-19T01:11:18.576Z,0
2016-07-19T01:12:18.548Z,0
2016-07-19T01:13:19.246Z,0
2016-07-19T01:14:17.849Z,0
2016-07-19T01:15:18.552Z,0
2016-07-19T01:16:19.260Z,0
2016-07-19T01:17:19.833Z,0
2016-07-19T01:18:18.572Z,0
2016-07-19T01:19:17.872Z,0
2016-07-19T01:20:17.868Z,0
2016-07-19T01:21:18.585Z,0
2016-07-19T01:22:20.000Z,0
2016-07-19T01:23:19.298Z,0
2016-07-19T01:24:20.012Z,0
2016-07-19T01:25:20.026Z,0
2016-07-19T01:26:18.760Z,0
2016-07-19T01:27:17.197Z,0
2016-07-19T01:28:20.121Z,0
2016-07-19T01:29:18.616Z,0
2016-07-19T01:30:18.633Z,0
2016-07-19T01:31:19.342Z,0
2016-07-19T01:32:19.348Z,0
2016-07-19T01:33:17.940Z,0
2016-07-19T01:34:18.658Z,0
2016-07-19T01:35:20.068Z,0
2016-07-19T01:36:18.658Z,0
2016-07-19T01:37:18.669Z,0
2016-07-19T01:38:19.375Z,0
2016-07-19T01:39:21.672Z,0
2016-07-19T01:40:19.383Z,0
2016-07-19T01:41:18.824Z,0
2016-07-19T01:42:17.980Z,0
2016-07-19T01:43:19.400Z,0
2016-07-19T01:44:20.109Z,0
2016-07-19T01:45:20.123Z,0
2016-07-19T01:46:19.412Z,0
2016-07-19T01:47:19.429Z,0
2016-07-19T01:48:18.714Z,0
2016-07-19T01:49:18.734Z,0
2016-07-19T01:50:20.179Z,0
2016-07-19T01:51:18.748Z,0
2016-07-19T01:52:19.440Z,0
2016-07-19T01:53:19.444Z,0
2016-07-19T01:54:19.453Z,0
2016-07-19T01:55:18.749Z,0
2016-07-19T01:56:18.051Z,0
2016-07-19T01:57:18.047Z,0
2016-07-19T01:58:19.480Z,0
2016-07-19T01:59:18.059Z,0
2016-07-19T02:00:18.064Z,0
2016-07-19T02:01:20.337Z,0
2016-07-19T02:02:18.072Z,0
2016-07-19T02:03:18.785Z,0
2016-07-19T02:04:18.788Z,0
2016-07-19T02:05:19.521Z,0
2016-07-19T02:06:18.800Z,0
2016-07-19T02:07:19.509Z,0
2016-07-19T02:08:19.519Z,0
2016-07-19T02:09:20.326Z,0
2016-07-19T02:10:18.823Z,0
2016-07-19T02:11:18.821Z,0
2016-07-19T02:12:19.883Z,0
2016-07-19T02:13:19.536Z,0
2016-07-19T02:14:21.230Z,0
2016-07-19T02:15:20.256Z,0
2016-07-19T02:16:19.652Z,0
2016-07-19T02:17:18.150Z,0
2016-07-19T02:18:18.857Z,0
2016-07-19T02:19:18.210Z,0
2016-07-19T02:20:18.155Z,0
2016-07-19T02:21:18.876Z,0
2016-07-19T02:22:18.883Z,0
2016-07-19T02:23:19.239Z,0
2016-07-19T02:24:20.293Z,0
2016-07-19T02:25:20.537Z,0
2016-07-19T02:26:18.892Z,0
2016-07-19T02:27:19.623Z,0
2016-07-19T02:28:18.905Z,0
2016-07-19T02:29:19.609Z,0
2016-07-19T02:30:18.908Z,0
2016-07-19T02:31:20.330Z,0
2016-07-19T02:32:18.917Z,0
2016-07-19T02:33:18.927Z,0
2016-07-19T02:34:19.645Z,0
2016-07-19T02:35:18.225Z,0
2016-07-19T02:36:20.552Z,0
2016-07-19T02:37:19.646Z,0
2016-07-19T02:38:19.756Z,0
2016-07-19T02:39:18.948Z,0
2016-07-19T02:40:20.369Z,0
2016-07-19T02:41:19.664Z,0
2016-07-19T02:42:18.968Z,0
2016-07-19T02:43:19.674Z,0
2016-07-19T02:44:20.388Z,0
2016-07-19T02:45:19.689Z,0
2016-07-19T02:46:19.703Z,0
2016-07-19T02:47:20.078Z,0
2016-07-19T02:48:19.701Z,0
2016-07-19T02:49:21.367Z,0
2016-07-19T02:50:19.000Z,0
2016-07-19T02:51:18.306Z,0
2016-07-19T02:52:19.718Z,0
2016-07-19T02:53:19.019Z,0
2016-07-19T02:54:27.875Z,0
2016-07-19T02:55:19.735Z,0
2016-07-19T02:56:19.736Z,0
2016-07-19T02:57:20.455Z,0
2016-07-19T02:58:20.000Z,0
2016-07-19T02:59:18.344Z,0
2016-07-19T03:00:18.457Z,0
2016-07-19T03:01:19.068Z,0
2016-07-19T03:02:19.880Z,0
2016-07-19T03:03:19.772Z,0
2016-07-19T03:04:17.674Z,0
2016-07-19T03:05:18.368Z,0
2016-07-19T03:06:19.086Z,0
2016-07-19T03:07:19.101Z,0
2016-07-19T03:08:20.507Z,0
2016-07-19T03:09:19.557Z,0
2016-07-19T03:10:19.098Z,0
2016-07-19T03:11:19.262Z,0
2016-07-19T03:12:19.822Z,0
2016-07-19T03:13:19.979Z,0
2016-07-19T03:14:19.124Z,0
2016-07-19T03:15:19.144Z,0
2016-07-19T03:16:19.133Z,0
2016-07-19T03:17:17.730Z,0
2016-07-19T03:18:19.854Z,0
2016-07-19T03:19:20.571Z,0
2016-07-19T03:20:19.154Z,0
2016-07-19T03:21:19.174Z,0
2016-07-19T03:22:20.907Z,0
2016-07-19T03:23:19.171Z,0
2016-07-19T03:24:19.421Z,0
2016-07-19T03:25:19.889Z,0
2016-07-19T03:26:18.540Z,0
2016-07-19T03:27:19.897Z,0
2016-07-19T03:28:18.494Z,0
2016-07-19T03:29:18.497Z,0
2016-07-19T03:30:18.503Z,0
2016-07-19T03:31:19.927Z,0
2016-07-19T03:32:20.631Z,0
2016-07-19T03:33:21.303Z,0
2016-07-19T03:34:19.225Z,0
2016-07-19T03:35:19.235Z,0
2016-07-19T03:36:19.238Z,0
2016-07-19T03:37:19.957Z,0
2016-07-19T03:38:19.954Z,0
2016-07-19T03:39:19.963Z,0
2016-07-19T03:40:19.262Z,0
2016-07-19T03:41:18.551Z,0
2016-07-19T03:42:18.568Z,0
2016-07-19T03:43:19.276Z,0
2016-07-19T03:44:20.598Z,0
2016-07-19T03:45:18.576Z,0
2016-07-19T03:46:21.888Z,5
2016-07-19T03:47:20.002Z,5
2016-07-19T03:48:20.713Z,5
2016-07-19T03:49:20.014Z,5
2016-07-19T03:50:19.304Z,5
2016-07-19T03:51:17.899Z,5
2016-07-19T03:52:19.312Z,5
2016-07-19T03:53:19.325Z,5
2016-07-19T03:54:20.741Z,5
2016-07-19T03:55:19.927Z,5
2016-07-19T03:56:19.395Z,5
2016-07-19T03:57:19.652Z,5
2016-07-19T03:58:20.046Z,5
2016-07-19T03:59:19.350Z,5
2016-07-19T04:00:20.058Z,10
2016-07-19T04:01:20.067Z,10
2016-07-19T04:02:19.415Z,10
2016-07-19T04:03:19.367Z,10
2016-07-19T04:04:20.358Z,10
2016-07-19T04:05:20.101Z,10
2016-07-19T04:06:19.728Z,10
2016-07-19T04:07:17.978Z,10
2016-07-19T04:08:19.390Z,10
2016-07-19T04:09:20.328Z,10
2016-07-19T04:10:20.110Z,10
2016-07-19T04:11:18.798Z,15
2016-07-19T04:12:19.415Z,15
2016-07-19T04:13:21.163Z,15
2016-07-19T04:14:19.472Z,15
2016-07-19T04:15:20.614Z,15
2016-07-19T04:16:19.465Z,15
2016-07-19T04:17:19.431Z,15
2016-07-19T04:18:20.253Z,15
2016-07-19T04:19:20.213Z,15
2016-07-19T04:20:20.947Z,20
2016-07-19T04:21:20.161Z,20
2016-07-19T04:22:20.567Z,20
2016-07-19T04:23:19.478Z,20
2016-07-19T04:24:20.951Z,20
2016-07-19T04:25:19.493Z,20
2016-07-19T04:26:20.894Z,20
2016-07-19T04:27:19.560Z,20
2016-07-19T04:28:20.190Z,25
2016-07-19T04:29:20.550Z,25
2016-07-19T04:30:19.637Z,25
2016-07-19T04:31:20.307Z,25
2016-07-19T04:32:19.658Z,25
2016-07-19T04:33:20.220Z,25
2016-07-19T04:34:19.539Z,25
2016-07-19T04:35:20.222Z,30
2016-07-19T04:36:20.782Z,30
2016-07-19T04:37:18.821Z,30
2016-07-19T04:38:19.678Z,30
2016-07-19T04:39:20.241Z,30
2016-07-19T04:40:20.257Z,30
2016-07-19T04:41:19.692Z,30
2016-07-19T04:42:20.271Z,35
2016-07-19T04:43:20.403Z,40
2016-07-19T04:44:19.564Z,40
2016-07-19T04:45:20.683Z,40
2016-07-19T04:46:20.361Z,40
2016-07-19T04:47:20.668Z,40
2016-07-19T04:48:18.899Z,40
2016-07-19T04:49:18.881Z,45
2016-07-19T04:50:20.351Z,45
2016-07-19T04:51:18.891Z,45
2016-07-19T04:52:20.443Z,50
2016-07-19T04:53:19.687Z,55
2016-07-19T04:54:31.844Z,65
2016-07-19T04:55:20.424Z,95
2016-07-19T04:56:20.381Z,115
2016-07-19T04:57:20.503Z,85
2016-07-19T04:58:20.349Z,150
2016-07-19T04:59:21.581Z,225
2016-07-19T05:00:19.719Z,245
2016-07-19T05:01:21.190Z,305
2016-07-19T05:02:20.540Z,335
2016-07-19T05:03:19.662Z,340
2016-07-19T05:04:19.111Z,350
2016-07-19T05:05:21.075Z,355
2016-07-19T05:06:19.867Z,365
2016-07-19T05:07:20.392Z,380
2016-07-19T05:08:21.606Z,385
2016-07-19T05:09:21.207Z,390
2016-07-19T05:10:20.450Z,395
2016-07-19T05:11:20.501Z,410
2016-07-19T05:12:20.642Z,415
2016-07-19T05:13:20.645Z,420
2016-07-19T05:14:19.910Z,430
2016-07-19T05:15:21.948Z,430
2016-07-19T05:16:19.918Z,425
2016-07-19T05:17:20.570Z,410
2016-07-19T05:18:21.434Z,425
2016-07-19T05:19:20.596Z,450
2016-07-19T05:20:20.824Z,455
2016-07-19T05:21:19.882Z,440
2016-07-19T05:22:20.869Z,445
2016-07-19T05:23:20.119Z,465
2016-07-19T05:24:20.784Z,480
2016-07-19T05:25:19.863Z,460
2016-07-19T05:26:19.895Z,455
2016-07-19T05:27:21.430Z,500
2016-07-19T05:28:21.374Z,535
2016-07-19T05:29:23.057Z,550
2016-07-19T05:30:20.682Z,565
2016-07-19T05:31:20.662Z,565
2016-07-19T05:32:21.387Z,550
2016-07-19T05:33:21.444Z,545
2016-07-19T05:34:19.948Z,550
2016-07-19T05:35:21.414Z,530
2016-07-19T05:36:21.775Z,525
2016-07-19T05:37:20.119Z,545
2016-07-19T05:38:19.299Z,595
2016-07-19T05:39:20.724Z,605
2016-07-19T05:40:20.042Z,620
2016-07-19T05:41:20.901Z,640
2016-07-19T05:42:20.054Z,630
2016-07-19T05:43:21.380Z,640
2016-07-19T05:44:20.849Z,675
2016-07-19T05:45:20.798Z,685
2016-07-19T05:46:20.040Z,710
2016-07-19T05:47:20.102Z,735
2016-07-19T05:48:21.903Z,720
2016-07-19T05:49:20.168Z,710
2016-07-19T05:50:21.712Z,720
2016-07-19T05:51:20.196Z,735
2016-07-19T05:52:20.190Z,735
2016-07-19T05:53:20.941Z,740
2016-07-19T05:54:20.987Z,740
2016-07-19T05:55:20.952Z,730
2016-07-19T05:56:20.936Z,730
2016-07-19T05:57:20.883Z,745
2016-07-19T05:58:21.764Z,775
2016-07-19T05:59:21.655Z,775
2016-07-19T06:00:21.329Z,760
2016-07-19T06:01:21.017Z,740
2016-07-19T06:02:21.022Z,755
2016-07-19T06:03:21.012Z,760
2016-07-19T06:04:21.009Z,755
2016-07-19T06:05:20.390Z,760
2016-07-19T06:06:20.210Z,750
2016-07-19T06:07:21.434Z,805
2016-07-19T06:08:19.497Z,835
2016-07-19T06:09:20.998Z,825
2016-07-19T06:10:19.699Z,825
2016-07-19T06:11:21.731Z,855
2016-07-19T06:12:22.043Z,865
2016-07-19T06:13:18.942Z,870
2016-07-19T06:14:22.572Z,880
2016-07-19T06:15:21.182Z,910
2016-07-19T06:16:21.097Z,915
2016-07-19T06:17:19.725Z,900
2016-07-19T06:18:21.876Z,910
2016-07-19T06:19:23.760Z,930
2016-07-19T06:20:21.113Z,930
2016-07-19T06:21:22.293Z,895
2016-07-19T06:22:21.326Z,895
2016-07-19T06:23:20.432Z,930
2016-07-19T06:24:21.266Z,920
2016-07-19T06:25:20.460Z,910
2016-07-19T06:26:23.389Z,915
2016-07-19T06:27:20.455Z,930
2016-07-19T06:28:21.271Z,980
2016-07-19T06:29:21.433Z,1025
2016-07-19T06:30:22.089Z,1030
2016-07-19T06:31:22.440Z,995
2016-07-19T06:32:21.389Z,965
2016-07-19T06:33:21.989Z,950
2016-07-19T06:34:20.624Z,940
2016-07-19T06:35:20.772Z,935
2016-07-19T06:36:21.710Z,885
2016-07-19T06:37:19.176Z,860
2016-07-19T06:38:23.455Z,930
2016-07-19T06:39:22.075Z,970
2016-07-19T06:40:20.601Z,1030
2016-07-19T06:41:22.086Z,1080
2016-07-19T06:42:21.343Z,1100
2016-07-19T06:43:22.285Z,1115
2016-07-19T06:44:22.151Z,1135
2016-07-19T06:45:20.011Z,1090
2016-07-19T06:46:20.060Z,1055
2016-07-19T06:47:22.170Z,1085
2016-07-19T06:48:23.461Z,1105
2016-07-19T06:49:20.711Z,1105
2016-07-19T06:50:21.413Z,1070
2016-07-19T06:51:20.890Z,1070
2016-07-19T06:52:20.157Z,1115
2016-07-19T06:53:21.540Z,1180
2016-07-19T06:54:22.375Z,1215
2016-07-19T06:55:21.648Z,1210
2016-07-19T06:56:22.411Z,1165
2016-07-19T06:57:21.590Z,1145
2016-07-19T06:58:22.378Z,1200
2016-07-19T06:59:20.839Z,1295
2016-07-19T07:00:21.590Z,1285
2016-07-19T07:01:22.404Z,1105
2016-07-19T07:02:21.583Z,945
2016-07-19T07:03:21.628Z,1050
2016-07-19T07:04:20.924Z,1285
2016-07-19T07:05:21.420Z,1375
2016-07-19T07:06:21.795Z,1360
2016-07-19T07:07:21.717Z,1255
2016-07-19T07:08:22.438Z,1160
2016-07-19T07:09:21.756Z,1165
2016-07-19T07:10:23.475Z,1145
2016-07-19T07:11:21.759Z,1230
2016-07-19T07:12:20.381Z,1350
2016-07-19T07:13:21.169Z,1350
2016-07-19T07:14:20.322Z,1360
2016-07-19T07:15:21.783Z,1385
2016-07-19T07:16:19.602Z,1405
2016-07-19T07:17:21.760Z,1340
2016-07-19T07:18:20.378Z,1305
2016-07-19T07:19:21.039Z,1345
2016-07-19T07:20:21.072Z,1465
2016-07-19T07:21:21.819Z,1550
2016-07-19T07:22:22.251Z,1530
2016-07-19T07:23:21.166Z,1460
2016-07-19T07:24:21.211Z,1395
2016-07-19T07:25:23.066Z,1405
2016-07-19T07:26:21.255Z,1370
2016-07-19T07:27:20.588Z,1430
2016-07-19T07:28:22.099Z,1600
2016-07-19T07:29:21.318Z,1600
2016-07-19T07:30:21.975Z,1515
2016-07-19T07:31:22.694Z,1410
2016-07-19T07:32:22.792Z,1300
2016-07-19T07:33:21.207Z,1360
2016-07-19T07:34:22.727Z,1390
2016-07-19T07:35:22.884Z,1375
2016-07-19T07:36:21.350Z,1515
2016-07-19T07:37:21.386Z,1535
2016-07-19T07:38:22.088Z,1580
2016-07-19T07:39:22.578Z,1595
2016-07-19T07:40:22.136Z,1425
2016-07-19T07:41:22.020Z,1375
2016-07-19T07:42:22.126Z,1345
2016-07-19T07:43:22.815Z,1450
2016-07-19T07:44:22.090Z,1355
2016-07-19T07:45:22.892Z,735
2016-07-19T07:46:22.231Z,180
2016-07-19T07:47:21.408Z,100
2016-07-19T07:48:22.551Z,100
2016-07-19T07:49:21.562Z,95
2016-07-19T07:50:21.587Z,95
2016-07-19T07:51:21.509Z,95
2016-07-19T07:52:21.590Z,95
2016-07-19T07:53:20.796Z,90
2016-07-19T07:54:22.318Z,90
2016-07-19T07:55:22.198Z,90
2016-07-19T07:56:23.438Z,90
2016-07-19T07:57:22.238Z,90
2016-07-19T07:58:23.416Z,90
2016-07-19T07:59:22.994Z,90
2016-07-19T08:00:21.664Z,90
2016-07-19T08:01:23.000Z,90
2016-07-19T08:02:22.965Z,90
2016-07-19T08:03:20.898Z,90
2016-07-19T08:04:22.398Z,90
2016-07-19T08:05:23.036Z,90
2016-07-19T08:06:22.286Z,95
2016-07-19T08:07:22.310Z,100
2016-07-19T08:08:21.581Z,105
2016-07-19T08:09:20.880Z,105
2016-07-19T08:10:22.529Z,105
2016-07-19T08:11:22.517Z,105
2016-07-19T08:12:22.415Z,105
2016-07-19T08:13:22.432Z,105
2016-07-19T08:14:23.257Z,105
2016-07-19T08:15:21.824Z,105
2016-07-19T08:16:21.864Z,100
2016-07-19T08:17:24.142Z,100
2016-07-19T08:18:22.434Z,100
2016-07-19T08:19:21.674Z,95
2016-07-19T08:20:22.384Z,95
2016-07-19T08:21:20.992Z,95
2016-07-19T08:22:21.505Z,95
2016-07-19T08:23:22.525Z,90
2016-07-19T08:24:20.433Z,90
2016-07-19T08:25:22.538Z,90
2016-07-19T08:26:22.422Z,90
2016-07-19T08:27:21.844Z,90
2016-07-19T08:28:21.911Z,90
2016-07-19T08:29:23.335Z,90
2016-07-19T08:30:24.942Z,90
2016-07-19T08:31:22.683Z,90
2016-07-19T08:32:23.212Z,85
2016-07-19T08:33:22.691Z,85
2016-07-19T08:34:22.637Z,85
2016-07-19T08:35:21.917Z,85
2016-07-19T08:36:23.445Z,85
2016-07-19T08:37:22.537Z,85
2016-07-19T08:38:23.401Z,85
2016-07-19T08:39:22.760Z,85
2016-07-19T08:40:21.924Z,85
2016-07-19T08:41:23.133Z,85
2016-07-19T08:42:23.390Z,85
2016-07-19T08:43:23.107Z,85
2016-07-19T08:44:23.420Z,85
2016-07-19T08:45:21.166Z,85
2016-07-19T08:46:25.852Z,85
2016-07-19T08:47:22.617Z,85
2016-07-19T08:48:23.418Z,90
2016-07-19T08:49:24.528Z,90
2016-07-19T08:50:21.277Z,95
2016-07-19T08:51:21.329Z,95
2016-07-19T08:52:22.725Z,95
2016-07-19T08:53:22.855Z,95
2016-07-19T08:54:22.279Z,100
2016-07-19T08:55:22.984Z,100
2016-07-19T08:56:22.071Z,100
2016-07-19T08:57:24.679Z,105
2016-07-19T08:58:23.578Z,105
2016-07-19T08:59:22.714Z,105
2016-07-19T09:00:22.728Z,105
2016-07-19T09:01:21.319Z,105
2016-07-19T09:02:24.220Z,105
2016-07-19T09:03:23.058Z,105
2016-07-19T09:04:22.844Z,110
2016-07-19T09:05:23.539Z,110
2016-07-19T09:06:22.162Z,110
2016-07-19T09:07:23.731Z,110
2016-07-19T09:08:22.967Z,110
2016-07-19T09:09:22.900Z,110
2016-07-19T09:10:23.513Z,110
2016-07-19T09:11:20.690Z,110
2016-07-19T09:12:22.924Z,110
2016-07-19T09:13:23.214Z,110
2016-07-19T09:14:23.129Z,110
2016-07-19T09:15:22.135Z,110
2016-07-19T09:16:22.295Z,110
2016-07-19T09:17:23.705Z,110
2016-07-19T09:18:22.880Z,110
2016-07-19T09:19:23.635Z,115
2016-07-19T09:20:23.118Z,115
2016-07-19T09:21:22.935Z,110
2016-07-19T09:22:23.423Z,110
2016-07-19T09:23:23.120Z,110
2016-07-19T09:24:23.129Z,110
2016-07-19T09:25:21.652Z,110
2016-07-19T09:26:23.005Z,110
2016-07-19T09:27:23.036Z,110
2016-07-19T09:28:23.052Z,110
2016-07-19T09:29:22.178Z,110
2016-07-19T09:30:23.096Z,110
2016-07-19T09:31:22.318Z,110
2016-07-19T09:32:23.838Z,105
2016-07-19T09:33:21.669Z,105
2016-07-19T09:34:22.987Z,105
2016-07-19T09:35:23.906Z,105
2016-07-19T09:36:24.098Z,115
2016-07-19T09:37:23.278Z,105
2016-07-19T09:38:23.520Z,105
2016-07-19T09:39:23.566Z,105
2016-07-19T09:40:23.215Z,105
2016-07-19T09:41:24.134Z,105
2016-07-19T09:42:23.157Z,105
2016-07-19T09:43:23.221Z,105
2016-07-19T09:44:23.128Z,105
2016-07-19T09:45:23.182Z,105
2016-07-19T09:46:22.614Z,105
2016-07-19T09:47:22.564Z,105
2016-07-19T09:48:23.266Z,105
2016-07-19T09:49:21.844Z,105
2016-07-19T09:50:22.709Z,105
2016-07-19T09:51:22.644Z,105
2016-07-19T09:52:24.021Z,100
2016-07-19T09:53:22.362Z,100
2016-07-19T09:54:25.055Z,100
2016-07-19T09:55:22.496Z,100
2016-07-19T09:56:23.926Z,100
2016-07-19T09:57:23.655Z,100
2016-07-19T09:58:23.241Z,100
2016-07-19T09:59:21.953Z,100
2016-07-19T10:00:22.064Z,100
2016-07-19T10:01:22.594Z,100
2016-07-19T10:02:24.009Z,100
2016-07-19T10:03:24.361Z,100
2016-07-19T10:04:23.330Z,100
2016-07-19T10:05:24.048Z,100
2016-07-19T10:06:24.244Z,100
2016-07-19T10:07:22.709Z,100
2016-07-19T10:08:22.763Z,95
2016-07-19T10:09:23.547Z,85
2016-07-19T10:10:21.344Z,95
2016-07-19T10:11:24.147Z,95
2016-07-19T10:12:23.389Z,95
2016-07-19T10:13:23.482Z,95
2016-07-19T10:14:23.939Z,95
2016-07-19T10:15:23.422Z,95
2016-07-19T10:16:22.110Z,95
2016-07-19T10:17:22.192Z,80
2016-07-19T10:18:24.296Z,85
2016-07-19T10:19:23.616Z,90
2016-07-19T10:20:24.096Z,95
2016-07-19T10:21:22.114Z,95
2016-07-19T10:22:22.156Z,95
2016-07-19T10:23:23.436Z,95
2016-07-19T10:24:22.005Z,95
2016-07-19T10:25:23.446Z,95
2016-07-19T10:26:24.105Z,110
2016-07-19T10:27:22.716Z,105
2016-07-19T10:28:23.533Z,90
2016-07-19T10:29:23.507Z,90
2016-07-19T10:30:23.465Z,85
2016-07-19T10:31:24.308Z,100
2016-07-19T10:32:22.080Z,85
2016-07-19T10:33:22.085Z,85
2016-07-19T10:34:22.785Z,100
2016-07-19T10:35:22.825Z,105
2016-07-19T10:36:23.824Z,105
2016-07-19T10:37:24.254Z,105
2016-07-19T10:38:23.744Z,105
2016-07-19T10:39:24.185Z,105
2016-07-19T10:40:23.720Z,105
2016-07-19T10:41:22.149Z,105
2016-07-19T10:42:24.390Z,105
2016-07-19T10:43:25.390Z,105
2016-07-19T10:44:23.517Z,80
2016-07-19T10:45:23.568Z,85
2016-07-19T10:46:23.021Z,80
2016-07-19T10:47:22.218Z,80
2016-07-19T10:48:23.650Z,85
2016-07-19T10:49:23.874Z,80
2016-07-19T10:50:23.891Z,80
2016-07-19T10:51:22.904Z,85
2016-07-19T10:52:22.974Z,90
2016-07-19T10:53:24.112Z,90
2016-07-19T10:54:37.343Z,100
2016-07-19T10:55:23.934Z,95
2016-07-19T10:56:22.858Z,95
2016-07-19T10:57:23.735Z,90
2016-07-19T10:58:22.979Z,90
2016-07-19T10:59:22.984Z,85
2016-07-19T11:00:23.095Z,90
2016-07-19T11:01:22.903Z,95
2016-07-19T11:02:24.527Z,95
2016-07-19T11:03:23.826Z,90
2016-07-19T11:04:23.850Z,95
2016-07-19T11:05:23.807Z,90
2016-07-19T11:06:23.860Z,90
2016-07-19T11:07:24.297Z,90
2016-07-19T11:08:24.600Z,90
2016-07-19T11:09:23.932Z,90
2016-07-19T11:10:23.179Z,90
2016-07-19T11:11:23.782Z,90
2016-07-19T11:12:24.685Z,90
2016-07-19T11:13:24.110Z,90
2016-07-19T11:14:23.129Z,95
2016-07-19T11:15:24.014Z,95
2016-07-19T11:16:24.705Z,90
2016-07-19T11:17:24.064Z,90
2016-07-19T11:18:23.030Z,90
2016-07-19T11:19:23.927Z,90
2016-07-19T11:20:24.777Z,90
2016-07-19T11:22:23.998Z,90
2016-07-19T11:23:24.656Z,75
2016-07-19T11:24:24.103Z,70
2016-07-19T11:25:22.638Z,85
2016-07-19T11:26:24.714Z,90
2016-07-19T11:27:23.281Z,90
2016-07-19T11:28:24.654Z,90
2016-07-19T11:29:23.891Z,90
2016-07-19T11:30:23.274Z,85
2016-07-19T11:31:24.740Z,85
2016-07-19T11:32:23.969Z,85
2016-07-19T11:33:23.292Z,85
2016-07-19T11:34:22.548Z,85
2016-07-19T11:35:23.851Z,85
2016-07-19T11:36:24.723Z,85
2016-07-19T11:37:24.718Z,85
2016-07-19T11:38:23.884Z,85
2016-07-19T11:39:24.765Z,85
2016-07-19T11:40:21.964Z,85
2016-07-19T11:41:22.563Z,85
2016-07-19T11:42:22.581Z,85
2016-07-19T11:43:25.194Z,80
2016-07-19T11:44:22.618Z,85
2016-07-19T11:45:22.701Z,80
2016-07-19T11:46:23.207Z,80
2016-07-19T11:47:23.336Z,80
2016-07-19T11:48:22.653Z,80
2016-07-19T11:49:24.056Z,80
2016-07-19T11:50:24.186Z,80
2016-07-19T11:51:24.662Z,80
2016-07-19T11:52:23.262Z,80
2016-07-19T11:53:23.298Z,80
2016-07-19T11:54:23.303Z,80
2016-07-19T11:55:24.120Z,80
2016-07-19T11:56:23.340Z,80
2016-07-19T11:57:23.383Z,80
2016-07-19T11:58:23.427Z,75
2016-07-19T11:59:23.332Z,75
2016-07-19T12:00:24.156Z,75
2016-07-19T12:01:23.400Z,75
2016-07-19T12:02:22.892Z,75
2016-07-19T12:03:22.770Z,75
2016-07-19T12:04:22.914Z,75
2016-07-19T12:05:24.210Z,75
2016-07-19T12:06:23.385Z,75
2016-07-19T12:07:23.434Z,75
2016-07-19T12:08:24.192Z,70
2016-07-19T12:09:23.685Z,70
2016-07-19T12:10:25.093Z,70
2016-07-19T12:11:23.407Z,70
2016-07-19T12:12:23.428Z,70
2016-07-19T12:13:24.296Z,70
2016-07-19T12:14:24.251Z,70
2016-07-19T12:15:23.428Z,70
2016-07-19T12:16:25.106Z,70
2016-07-19T12:17:24.574Z,70
2016-07-19T12:18:24.912Z,70
2016-07-19T12:19:23.525Z,70
2016-07-19T12:20:23.751Z,70
2016-07-19T12:21:24.987Z,70
2016-07-19T12:22:24.408Z,70
2016-07-19T12:23:23.827Z,70
2016-07-19T12:24:24.368Z,65
2016-07-19T12:25:23.703Z,65
2016-07-19T12:26:22.810Z,65
2016-07-19T12:27:23.631Z,65
2016-07-19T12:28:24.289Z,65
2016-07-19T12:29:22.929Z,65
2016-07-19T12:30:23.788Z,65
2016-07-19T12:31:25.278Z,65
2016-07-19T12:32:23.009Z,65
2016-07-19T12:33:24.546Z,65
2016-07-19T12:34:25.105Z,65
2016-07-19T12:35:25.073Z,65
2016-07-19T12:36:24.512Z,65
2016-07-19T12:37:24.575Z,65
2016-07-19T12:38:23.606Z,65
2016-07-19T12:39:22.964Z,70
2016-07-19T12:40:23.840Z,65
2016-07-19T12:41:23.765Z,65
2016-07-19T12:42:24.476Z,60
2016-07-19T12:43:24.510Z,60
2016-07-19T12:44:25.233Z,60
2016-07-19T12:45:24.724Z,60
2016-07-19T12:46:23.684Z,60
2016-07-19T12:47:22.993Z,60
2016-07-19T12:48:22.426Z,60
2016-07-19T12:49:25.347Z,60
2016-07-19T12:50:23.905Z,60
2016-07-19T12:51:24.486Z,60
2016-07-19T12:52:23.854Z,60
2016-07-19T12:53:23.853Z,60
2016-07-19T12:54:24.434Z,60
2016-07-19T12:55:24.469Z,60
2016-07-19T12:56:24.579Z,60
2016-07-19T12:57:24.608Z,60
2016-07-19T12:58:22.436Z,60
2016-07-19T12:59:24.636Z,60
2016-07-19T13:00:24.587Z,60
2016-07-19T13:01:23.783Z,60
2016-07-19T13:02:23.913Z,60
2016-07-19T13:03:23.852Z,60
2016-07-19T13:04:23.405Z,60
2016-07-19T13:05:23.862Z,60
2016-07-19T13:06:24.663Z,60
2016-07-19T13:07:23.825Z,60
2016-07-19T13:08:23.894Z,60
2016-07-19T13:09:25.301Z,60
2016-07-19T13:10:24.580Z,60
2016-07-19T13:11:23.894Z,60
2016-07-19T13:12:24.806Z,60
2016-07-19T13:13:24.580Z,60
2016-07-19T13:14:24.860Z,60
2016-07-19T13:15:25.352Z,60
2016-07-19T13:16:25.348Z,60
2016-07-19T13:17:23.580Z,60
2016-07-19T13:18:24.661Z,60
2016-07-19T13:19:24.740Z,60
2016-07-19T13:20:23.366Z,60
2016-07-19T13:21:24.459Z,60
2016-07-19T13:22:24.623Z,60
2016-07-19T13:23:24.263Z,60
2016-07-19T13:24:24.774Z,60
2016-07-19T13:25:24.288Z,60
2016-07-19T13:26:24.744Z,60
2016-07-19T13:27:24.004Z,60
2016-07-19T13:28:25.553Z,60
2016-07-19T13:29:23.262Z,60
2016-07-19T13:30:23.973Z,60
2016-07-19T13:31:23.993Z,60
2016-07-19T13:32:25.593Z,60
2016-07-19T13:33:25.593Z,60
2016-07-19T13:34:24.860Z,60
2016-07-19T13:35:24.113Z,60
2016-07-19T13:36:24.805Z,60
2016-07-19T13:37:24.131Z,60
2016-07-19T13:38:24.096Z,60
2016-07-19T13:39:24.485Z,60
2016-07-19T13:40:24.077Z,60
2016-07-19T13:41:24.055Z,60
2016-07-19T13:42:25.538Z,60
2016-07-19T13:43:24.233Z,60
2016-07-19T13:44:23.464Z,60
2016-07-19T13:45:25.587Z,60
2016-07-19T13:46:24.956Z,60
2016-07-19T13:47:24.853Z,55
2016-07-19T13:48:25.615Z,60
2016-07-19T13:49:25.081Z,55
2016-07-19T13:50:24.948Z,55
2016-07-19T13:51:23.423Z,55
2016-07-19T13:52:24.944Z,55
2016-07-19T13:53:24.894Z,55
2016-07-19T13:54:24.172Z,55
2016-07-19T13:55:25.120Z,55
2016-07-19T13:56:23.889Z,55
2016-07-19T13:57:24.990Z,55
2016-07-19T13:58:24.301Z,55
2016-07-19T13:59:24.193Z,55
2016-07-19T14:00:25.717Z,55
2016-07-19T14:01:24.921Z,55
2016-07-19T14:02:25.941Z,55
2016-07-19T14:03:24.221Z,55
2016-07-19T14:04:25.224Z,55
2016-07-19T14:05:25.937Z,55
2016-07-19T14:06:24.958Z,55
2016-07-19T14:07:24.801Z,55
2016-07-19T14:08:25.000Z,55
2016-07-19T14:09:24.334Z,55
2016-07-19T14:10:23.630Z,55
2016-07-19T14:11:25.006Z,55
2016-07-19T14:12:24.327Z,55
2016-07-19T14:13:25.104Z,55